Time;durP1;ratioP1;P1;durP2;ratioP2;P2;SDS_P1;SDS_P2;PMS_P1;PMS_P2;Temp;Humidity;BMP_temperature;BMP_pressure;BME280_temperature;BME280_humidity;BME280_pressure;Samples;Min_cycle;Max_cycle;Signal;HPM_P1;HPM_P2
2023/09/03 00:16:08;;;;;;;;;;;;;;;;;;;;;
2023/09/03 00:22:07;;;;;;;;;;;;;;;-145.06;0.00;60892.56;6072454;22;19907;-94
2023/09/03 00:24:54;;;;;;;;;;;;;;;-145.06;0.00;60892.56;6040446;22;19911;-95
2023/09/03 00:28:15;;;;;;;;;;;;;;;;;;;;;
2023/09/03 00:32:02;;;;;;;;;;;;;;;-145.06;0.00;60892.56;6073183;22;19907;-95
2023/09/03 00:34:38;;;;;;;;;;;;;;;;;;;;;
2023/09/03 00:40:57;;;;;;;;;;;;;;;-145.06;0.00;60892.56;6036938;22;19981;-95
2023/09/03 00:50:50;;;;;;;;;;;;;;;;;;;;;
2023/09/03 00:54:02;;;;;;;;;;;;;;;;;;;;;
2023/09/03 00:56:57;;;;;;;;;;;;;;;-145.06;0.00;60892.56;5976523;22;19908;-94
2023/09/03 00:59:44;;;;;;;;;;;;;;;-145.06;0.00;60892.56;6039811;22;19907;-95
2023/09/03 01:03:01;;;;;;;;;;;;;;;-145.06;0.00;60892.56;6039896;22;19911;-94
2023/09/03 01:06:06;;;;;;;;;;;;;;;-145.06;0.00;60892.56;6042075;22;19927;-95
2023/09/03 01:09:18;;;;;;;;;;;;;;;;;;;;;
2023/09/03 01:12:15;;;;;;;;;;;;;;;-145.06;0.00;60892.56;6075645;22;19907;-94
2023/09/03 01:15:19;;;;;;;;;;;;;;;-145.06;0.00;60892.56;6045584;22;20474;-93
2023/09/03 01:18:44;;;;;;;;;;;;;;;-145.06;0.00;60892.56;6064903;22;19907;-95
2023/09/03 01:25:09;;;;;;;;;;;;;;;;;;;;;
2023/09/03 01:28:15;;;;;;;;;;;;;;;-145.06;0.00;60892.56;6075252;22;19982;-95
2023/09/03 01:31:06;;;;;;;;;;;;;;;-145.06;0.00;60892.56;6066077;22;19907;-94
2023/09/03 01:34:09;;;;;;;;;;;;;;;-145.06;0.00;60892.56;6066353;22;19986;-95
2023/09/03 01:36:58;;;;;;;;;;;;;;;18.47;0.00;60892.56;6065802;22;19907;-95
2023/09/03 01:39:59;;;;;;;;;;;;;;;18.42;0.00;60892.56;6064790;22;19907;-93
2023/09/03 01:42:46;;;;;;;;;;;;;;;18.39;0.00;60892.56;6065403;22;19938;-95
2023/09/03 01:48:49;;;;;;;;;;;;;;;18.30;0.00;60892.56;6073748;22;19908;-94
2023/09/03 01:52:14;;;;;;;;;;;;;;;;;;;;;
2023/09/03 02:05:48;;;;;;;;;;;;;;;-145.06;0.00;60892.56;6074383;22;19911;-93
2023/09/03 02:09:13;;;;;;;;;;;;;;;-145.06;0.00;60892.56;6045118;22;19907;-93
2023/09/03 02:12:25;;;;;;;;;;;;;;;;;;;;;
2023/09/03 02:15:08;;;;;;;;;;;;;;;-145.06;0.00;60892.56;6047951;22;19912;-95
2023/09/03 02:18:00;;;;;;;;;;;;;;;;;;;;;
2023/09/03 02:24:01;;;;;;;;;;;;;;;-145.06;0.00;60892.56;6074052;22;19911;-93
2023/09/03 02:30:12;;;;;;;;;;;;;;;;;;;;;
2023/09/03 02:43:17;;;;;;;;;;;;;;;-145.06;0.00;60892.56;6069013;22;19907;-96
2023/09/03 02:49:40;;;;;;;;;;;;;;;-145.06;0.00;60892.56;6073688;22;19907;-94
2023/09/03 02:53:11;;;;;;;;;;;;;;;-145.06;0.00;60892.56;6037967;22;19907;-94
2023/09/03 02:56:08;;;;;;;;;;;;;;;;;;;;;
2023/09/03 02:58:59;;;;;;;;;;;;;;;-145.06;0.00;60892.56;6073726;22;19907;-94
2023/09/03 03:01:48;;;;;;;;;;;;;;;-145.06;0.00;60892.56;6041038;22;19907;-94
2023/09/03 03:04:41;;;;;;;;;;;;;;;-145.06;0.00;60892.56;6041005;22;19915;-93
2023/09/03 03:08:02;;;;;;;;;;;;;;;;;;;;;
2023/09/03 03:10:47;;;;;;;;;;;;;;;-145.06;0.00;60892.56;6073385;22;19907;-94
2023/09/03 03:13:55;;;;;;;;;;;;;;;-145.06;0.00;60892.56;6040672;22;19908;-95
2023/09/03 03:20:11;;;;;;;;;;;;;;;-145.06;0.00;60892.56;6046858;22;20215;-94
2023/09/03 03:23:23;;;;;;;;;;;;;;;-145.06;0.00;60892.56;6040472;22;19903;-95
2023/09/03 03:26:32;;;;;;;;;;;;;;;;;;;;;
2023/09/03 03:29:32;;;;;;;;;;;;;;;;;;;;;
2023/09/03 03:32:46;;;;;;;;;;;;;;;;;;;;;
2023/09/03 03:35:45;;;;;;;;;;;;;;;;;;;;;
2023/09/03 03:41:59;;;;;;;;;;;;;;;;;;;;;
2023/09/03 03:44:56;;;;;;;;;;;;;;;;;;;;;
2023/09/03 03:47:48;;;;;;;;;;;;;;;-145.06;0.00;60892.56;6073025;22;20317;-95
2023/09/03 03:50:46;;;;;;;;;;;;;;;;;;;;;
2023/09/03 03:54:03;;;;;;;;;;;;;;;;;;;;;
2023/09/03 03:56:57;;;;;;;;;;;;;;;;;;;;;
2023/09/03 04:39:10;;;;;;;;;;;;;;;;;;;;;
2023/09/03 04:41:54;;;;;;;;;;;;;;;-145.06;0.00;60892.56;6072605;22;19911;-93
2023/09/03 04:45:01;;;;;;;;;;;;;;;-145.06;0.00;60892.56;6040092;22;19915;-91
2023/09/03 04:47:43;;;;;;;;;;;;;;;-145.06;0.00;60892.56;6039903;22;19907;-91
2023/09/03 04:51:10;;;;;;;;;;;;;;;-145.06;0.00;60892.56;6039684;22;19986;-92
2023/09/03 04:53:54;;;;;;;;;;;;;;;-145.06;0.00;60892.56;6060080;22;20219;-94
2023/09/03 04:57:14;;;;;;;;;;;;;;;-145.06;0.00;60892.56;6040170;22;19938;-93
2023/09/03 04:59:56;;;;;;;;;;;;;;;-145.06;0.00;60892.56;6040244;22;19907;-93
2023/09/03 05:02:58;;;;;;;;;;;;;;;-145.06;0.00;60892.56;6040091;22;19907;-92
2023/09/03 05:05:56;;;;;;;;;;;;;;;;;;;;;
2023/09/03 05:08:53;;;;;;;;;;;;;;;-145.06;0.00;60892.56;6072872;22;19986;-93
2023/09/03 05:12:00;;;;;;;;;;;;;;;-145.06;0.00;60892.56;6039836;22;19907;-94
2023/09/03 05:14:52;;;;;;;;;;;;;;;;;;;;;
2023/09/03 05:17:33;;;;;;;;;;;;;;;-145.06;0.00;60892.56;6072410;22;19907;-94
2023/09/03 05:20:34;;;;;;;;;;;;;;;-145.06;0.00;60892.56;6039846;22;20462;-93
2023/09/03 05:23:32;;;;;;;;;;;;;;;-145.06;0.00;60892.56;6040294;22;19947;-93
2023/09/03 05:26:32;;;;;;;;;;;;;;;-145.06;0.00;60892.56;6039763;22;19938;-93
2023/09/03 05:29:23;;;;;;;;;;;;;;;-145.06;0.00;60892.56;6062153;22;19907;-93
2023/09/03 05:32:10;;;;;;;;;;;;;;;-145.06;0.00;60892.56;6039290;22;19912;-94
2023/09/03 05:38:06;;;;;;;;;;;;;;;-145.06;0.00;60892.56;6064909;22;20357;-94
2023/09/03 05:40:58;;;;;;;;;;;;;;;;;;;;;
2023/09/03 05:44:06;;;;;;;;;;;;;;;-145.06;0.00;60892.56;6072525;22;19907;-96
2023/09/03 05:50:25;;;;;;;;;;;;;;;-145.06;0.00;60892.56;6068071;22;19912;-94
2023/09/03 05:53:41;;;;;;;;;;;;;;;;;;;;;
2023/09/03 05:59:43;;;;;;;;;;;;;;;;;;;;;
2023/09/03 06:09:17;;;;;;;;;;;;;;;;;;;;;
2023/09/03 06:11:51;;;;;;;;;;;;;;;-145.06;0.00;60892.56;6062327;22;19911;-94
2023/09/03 06:14:54;;;;;;;;;;;;;;;-145.06;0.00;60892.56;6039796;22;19930;-92
2023/09/03 06:18:14;;;;;;;;;;;;;;;-145.06;0.00;60892.56;6042053;22;19930;-94
2023/09/03 06:27:52;;;;;;;;;;;;;;;-145.06;0.00;60892.56;6074866;22;19907;-93
2023/09/03 06:44:08;;;;;;;;;;;;;;;;;;;;;
2023/09/03 06:46:58;;;;;;;;;;;;;;;-145.06;0.00;60892.56;6074473;22;19907;-93
2023/09/03 06:49:37;;;;;;;;;;;;;;;-145.06;0.00;60892.56;6041994;22;19907;-94
2023/09/03 06:52:42;;;;;;;;;;;;;;;-145.06;0.00;60892.56;6041717;22;19990;-94
2023/09/03 06:55:49;;;;;;;;;;;;;;;-145.06;0.00;60892.56;6041481;22;19907;-94
2023/09/03 06:58:38;;;;;;;;;;;;;;;;;;;;;
2023/09/03 07:01:19;;;;;;;;;;;;;;;-145.06;0.00;60892.56;6072426;22;19907;-94
2023/09/03 07:04:21;;;;;;;;;;;;;;;;;;;;;
2023/09/03 07:07:13;;;;;;;;;;;;;;;-145.06;0.00;60892.56;6074231;22;19908;-94
2023/09/03 07:10:06;;;;;;;;;;;;;;;;;;;;;
2023/09/03 07:12:55;;;;;;;;;;;;;;;-145.06;0.00;60892.56;6073748;22;19907;-93
2023/09/03 07:25:08;;;;;;;;;;;;;;;-145.06;0.00;60892.56;6031887;22;19926;-94
2023/09/03 15:47:52;;;;;;;;;;;;;;;;;;;;;
2023/09/03 15:54:12;;;;;;;;;;;;;;;-145.06;0.00;60892.56;6043298;22;19907;-94
2023/09/03 15:57:13;;;;;;;;;;;;;;;;;;;;;
2023/09/03 16:00:25;;;;;;;;;;;;;;;;;;;;;
2023/09/03 16:03:04;;;;;;;;;;;;;;;-145.06;0.00;60892.56;5982062;23;19928;-93
2023/09/03 16:08:42;;;;;;;;;;;;;;;-145.06;0.00;60892.56;6072776;22;19907;-90
2023/09/03 16:11:21;;;;;;;;;;;;;;;-145.06;0.00;60892.56;6041617;22;19911;-90
2023/09/03 16:14:03;;;;;;;;;;;;;;;-145.06;0.00;60892.56;6041267;22;19908;-91
2023/09/03 16:16:45;;;;;;;;;;;;;;;-145.06;0.00;60892.56;6042646;22;19907;-92
2023/09/03 16:19:26;;;;;;;;;;;;;;;-145.06;0.00;60892.56;6042840;22;19908;-93
2023/09/03 16:22:05;;;;;;;;;;;;;;;-145.06;0.00;60892.56;6043447;22;19907;-91
2023/09/03 16:24:47;;;;;;;;;;;;;;;-145.06;0.00;60892.56;6031008;22;19916;-92
2023/09/03 16:27:33;;;;;;;;;;;;;;;-145.06;0.00;60892.56;6043930;22;20350;-92
2023/09/03 16:30:13;;;;;;;;;;;;;;;-145.06;0.00;60892.56;6043700;22;19907;-90
2023/09/03 16:33:22;;;;;;;;;;;;;;;24.43;0.00;60892.56;6042235;22;19923;-93
2023/09/03 16:36:01;;;;;;;;;;;;;;;24.41;0.00;60892.56;6041226;22;19939;-92
2023/09/03 16:38:45;;;;;;;;;;;;;;;24.37;0.00;60892.56;6042758;22;19907;-92
2023/09/03 16:41:29;;;;;;;;;;;;;;;24.34;0.00;60892.56;6042125;22;19907;-92
2023/09/03 16:44:09;;;;;;;;;;;;;;;-145.06;0.00;60892.56;6042538;22;19911;-92
2023/09/03 16:46:48;;;;;;;;;;;;;;;-145.06;0.00;60892.56;6042087;22;19915;-91
2023/09/03 16:49:27;;;;;;;;;;;;;;;-145.06;0.00;60892.56;6042450;22;19923;-92
2023/09/03 16:52:06;;;;;;;;;;;;;;;-145.06;0.00;60892.56;6042552;22;19907;-91
2023/09/03 16:54:45;;;;;;;;;;;;;;;-145.06;0.00;60892.56;6041667;22;19911;-91
2023/09/03 16:57:27;;;;;;;;;;;;;;;-145.06;0.00;60892.56;6042549;22;19907;-92
2023/09/03 17:00:06;;;;;;;;;;;;;;;-145.06;0.00;60892.56;6041639;22;19908;-92
2023/09/03 17:02:45;;;;;;;;;;;;;;;-145.06;0.00;60892.56;6042577;22;19911;-92
2023/09/03 17:05:24;;;;;;;;;;;;;;;-145.06;0.00;60892.56;6041913;22;19915;-92
2023/09/03 17:08:06;;;;;;;;;;;;;;;-145.06;0.00;60892.56;6074028;22;19907;-92
2023/09/03 17:10:45;;;;;;;;;;;;;;;-145.06;0.00;60892.56;6038164;22;19954;-92
2023/09/03 17:13:24;;;;;;;;;;;;;;;-145.06;0.00;60892.56;6041880;22;19982;-91
2023/09/03 17:16:03;;;;;;;;;;;;;;;-145.06;0.00;60892.56;6041305;22;19907;-90
2023/09/03 17:18:44;;;;;;;;;;;;;;;-145.06;0.00;60892.56;6042054;22;19908;-92
2023/09/03 17:21:24;;;;;;;;;;;;;;;-145.06;0.00;60892.56;6041026;22;19911;-92
2023/09/03 17:24:03;;;;;;;;;;;;;;;-145.06;0.00;60892.56;6040870;22;19907;-92
2023/09/03 17:26:41;;;;;;;;;;;;;;;-145.06;0.00;60892.56;6041644;22;19907;-91
2023/09/03 17:29:21;;;;;;;;;;;;;;;-145.06;0.00;60892.56;6041046;22;19903;-92
2023/09/03 17:32:00;;;;;;;;;;;;;;;-145.06;0.00;60892.56;6040662;22;19911;-92
2023/09/03 17:34:39;;;;;;;;;;;;;;;-145.06;0.00;60892.56;6039493;22;19951;-91
2023/09/03 17:37:24;;;;;;;;;;;;;;;-145.06;0.00;60892.56;6039893;22;19926;-93
2023/09/03 17:40:05;;;;;;;;;;;;;;;-145.06;0.00;60892.56;6073604;22;19907;-92
2023/09/03 17:42:44;;;;;;;;;;;;;;;23.62;0.00;60892.56;6039432;22;20455;-92
2023/09/03 17:45:23;;;;;;;;;;;;;;;23.54;0.00;60892.56;6040853;22;20376;-90
2023/09/03 17:48:02;;;;;;;;;;;;;;;23.48;0.00;104794.97;6040824;22;20317;-92
2023/09/03 17:50:41;;;;;;;;;;;;;;;23.41;0.00;60892.56;6039654;22;19907;-91
2023/09/03 17:53:20;;;;;;;;;;;;;;;23.35;0.00;60892.56;6073974;22;19907;-90
2023/09/03 17:55:59;;;;;;;;;;;;;;;23.30;0.00;60892.56;6071874;22;19907;-90
2023/09/03 17:58:38;;;;;;;;;;;;;;;-145.06;0.00;60892.56;6040847;22;19907;-91
2023/09/03 18:01:17;;;;;;;;;;;;;;;-145.06;0.00;60892.56;6040439;22;19911;-91
2023/09/03 18:11:14;;;;;;;;;;;;;;;-145.06;0.00;60892.56;5922442;23;20026;-93
2023/09/03 19:06:48;;;;;;;;;;;;;;;-145.06;0.00;60892.56;6115026;22;20773;-94
2023/09/03 19:09:37;;;;;;;;;;;;;;;-145.06;0.00;60892.56;6099570;22;19907;-91
2023/09/03 19:12:18;;;;;;;;;;;;;;;-145.06;0.00;60892.56;6070348;22;19911;-91
2023/09/03 19:15:00;;;;;;;;;;;;;;;-145.06;0.00;60892.56;6069763;22;19907;-91
2023/09/03 19:17:41;;;;;;;;;;;;;;;-145.06;0.00;60892.56;6069888;22;19906;-92
2023/09/03 19:20:25;;;;;;;;;;;;;;;-145.06;0.00;60892.56;6090193;22;19910;-91
2023/09/03 19:23:15;;;;;;;;;;;;;;;-145.06;0.00;60892.56;6089973;22;20206;-93
2023/09/03 19:26:07;;;;;;;;;;;;;;;;;;;;;
2023/09/03 19:28:48;;;;;;;;;;;;;;;-145.06;0.00;60892.56;6102662;22;20325;-93
2023/09/03 19:31:44;;;;;;;;;;;;;;;-145.06;0.00;60892.56;6069108;22;19907;-92
2023/09/03 19:34:25;;;;;;;;;;;;;;;21.05;0.00;60892.56;6069383;22;20328;-92
2023/09/03 19:37:04;;;;;;;;;;;;;;;21.01;0.00;60892.56;6069946;22;19955;-92
2023/09/03 19:39:43;;;;;;;;;;;;;;;20.97;0.00;60892.56;6069371;22;20257;-92
2023/09/03 19:42:41;;;;;;;;;;;;;;;20.95;0.00;60892.56;6069643;22;19907;-93
2023/09/03 19:45:42;;;;;;;;;;;;;;;20.91;0.00;60892.56;6090997;22;19915;-92
2023/09/03 19:49:03;;;;;;;;;;;;;;;20.88;0.00;60892.56;6091668;22;20325;-92
2023/09/03 19:51:56;;;;;;;;;;;;;;;20.84;0.00;60892.56;6092592;22;19907;-92
2023/09/03 19:54:45;;;;;;;;;;;;;;;20.79;0.00;60892.56;6069279;22;19907;-93
2023/09/03 19:57:45;;;;;;;;;;;;;;;20.76;0.00;60892.56;6069245;22;19907;-92
2023/09/03 20:03:34;;;;;;;;;;;;;;;-145.06;0.00;60892.56;6102293;22;19907;-93
2023/09/03 20:06:31;;;;;;;;;;;;;;;-145.06;0.00;60892.56;6069476;22;19942;-93
2023/09/03 20:09:22;;;;;;;;;;;;;;;-145.06;0.00;60892.56;6068586;22;19914;-92
2023/09/03 20:12:14;;;;;;;;;;;;;;;-145.06;0.00;60892.56;6091541;22;19977;-92
2023/09/03 20:15:03;;;;;;;;;;;;;;;-145.06;0.00;60892.56;6069693;22;20206;-92
2023/09/03 20:17:53;;;;;;;;;;;;;;;-145.06;0.00;60892.56;6091543;22;19906;-93
2023/09/03 20:20:43;;;;;;;;;;;;;;;-145.06;0.00;60892.56;6069068;22;19907;-93
2023/09/03 20:23:36;;;;;;;;;;;;;;;;;;;;;
2023/09/03 20:26:23;;;;;;;;;;;;;;;-145.06;0.00;60892.56;6102473;22;19910;-92
2023/09/03 20:29:05;;;;;;;;;;;;;;;-145.06;0.00;60892.56;6090815;22;20222;-92
2023/09/03 20:31:49;;;;;;;;;;;;;;;-145.06;0.00;60892.56;6069812;22;20321;-92
2023/09/03 20:34:32;;;;;;;;;;;;;;;-145.06;0.00;60892.56;6068052;22;19906;-92
2023/09/03 20:37:16;;;;;;;;;;;;;;;-145.06;0.00;60892.56;6068688;22;19911;-92
2023/09/03 20:40:03;;;;;;;;;;;;;;;-145.06;0.00;60892.56;6091385;22;20198;-91
2023/09/03 20:43:05;;;;;;;;;;;;;;;-145.06;0.00;60892.56;6069015;22;19903;-93
2023/09/03 20:45:57;;;;;;;;;;;;;;;-145.06;0.00;60892.56;6088049;22;19910;-92
2023/09/03 20:49:10;;;;;;;;;;;;;;;;;;;;;
2023/09/03 20:55:05;;;;;;;;;;;;;;;-145.06;0.00;60892.56;6102762;22;19907;-92
2023/09/03 20:57:56;;;;;;;;;;;;;;;-145.06;0.00;60892.56;6090546;22;19926;-92
2023/09/03 21:00:40;;;;;;;;;;;;;;;-145.06;0.00;60892.56;6069439;22;19986;-93
2023/09/03 21:03:22;;;;;;;;;;;;;;;-145.06;0.00;60892.56;6068965;22;19926;-93
2023/09/03 21:06:11;;;;;;;;;;;;;;;-145.06;0.00;60892.56;6068681;22;19915;-92
2023/09/03 21:08:55;;;;;;;;;;;;;;;-145.06;0.00;60892.56;6069812;22;19911;-92
2023/09/03 21:11:37;;;;;;;;;;;;;;;-145.06;0.00;60892.56;6090791;22;19907;-93
2023/09/03 21:14:16;;;;;;;;;;;;;;;-145.06;0.00;60892.56;6091366;22;19906;-93
2023/09/03 21:17:15;;;;;;;;;;;;;;;-145.06;0.00;60892.56;6069207;22;19907;-93
2023/09/03 21:19:59;;;;;;;;;;;;;;;-145.06;0.00;60892.56;6091231;22;19906;-92
2023/09/03 21:22:53;;;;;;;;;;;;;;;-145.06;0.00;60892.56;6069245;22;20312;-92
2023/09/03 21:25:44;;;;;;;;;;;;;;;-145.06;0.00;60892.56;6069243;22;19911;-93
2023/09/03 21:28:35;;;;;;;;;;;;;;;-145.06;0.00;60892.56;6064611;22;19922;-92
2023/09/03 21:31:22;;;;;;;;;;;;;;;-145.06;0.00;60892.56;6091354;22;19907;-92
2023/09/03 21:34:04;;;;;;;;;;;;;;;-145.06;0.00;60892.56;6069483;22;19907;-93
2023/09/03 21:36:53;;;;;;;;;;;;;;;;;;;;;
2023/09/03 21:39:34;;;;;;;;;;;;;;;-145.06;0.00;60892.56;6102402;22;19907;-92
2023/09/03 21:42:16;;;;;;;;;;;;;;;-145.06;0.00;60892.56;6068186;22;19907;-93
2023/09/03 21:45:00;;;;;;;;;;;;;;;-145.06;0.00;60892.56;6069051;22;19911;-93
2023/09/03 21:47:44;;;;;;;;;;;;;;;-145.06;0.00;60892.56;6091865;22;20314;-93
2023/09/03 21:50:26;;;;;;;;;;;;;;;-145.06;0.00;60892.56;6092755;22;20210;-92
2023/09/03 21:53:27;;;;;;;;;;;;;;;-145.06;0.00;60892.56;6068904;22;19935;-91
2023/09/03 21:56:16;;;;;;;;;;;;;;;-145.06;0.00;60892.56;6092652;22;19907;-92
2023/09/03 21:59:03;;;;;;;;;;;;;;;-145.06;0.00;60892.56;6070669;22;19911;-92
2023/09/03 22:01:45;;;;;;;;;;;;;;;-145.06;0.00;60892.56;6070829;22;19911;-93
2023/09/03 22:04:24;;;;;;;;;;;;;;;-145.06;0.00;60892.56;6093029;22;19907;-91
2023/09/03 22:07:08;;;;;;;;;;;;;;;-145.06;0.00;60892.56;6071187;22;19907;-91
2023/09/03 22:10:07;;;;;;;;;;;;;;;-145.06;0.00;60892.56;6070731;22;19970;-91
2023/09/03 22:12:49;;;;;;;;;;;;;;;-145.06;0.00;60892.56;6092850;22;19907;-91
2023/09/03 22:15:28;;;;;;;;;;;;;;;-145.06;0.00;60892.56;6070536;22;19907;-92
2023/09/03 22:18:17;;;;;;;;;;;;;;;-145.06;0.00;60892.56;6070873;22;19907;-91
2023/09/03 22:21:03;;;;;;;;;;;;;;;-145.06;0.00;60892.56;6103972;22;20234;-94
2023/09/03 22:24:00;;;;;;;;;;;;;;;-145.06;0.00;60892.56;6092401;22;20321;-93
2023/09/03 22:26:44;;;;;;;;;;;;;;;-145.06;0.00;60892.56;6070538;22;19910;-95
2023/09/03 22:29:43;;;;;;;;;;;;;;;-145.06;0.00;60892.56;6092201;22;20048;-93
2023/09/03 22:32:33;;;;;;;;;;;;;;;-145.06;0.00;60892.56;6092609;22;19907;-93
2023/09/03 22:35:25;;;;;;;;;;;;;;;-145.06;0.00;60892.56;6092628;22;19907;-94
2023/09/03 22:38:04;;;;;;;;;;;;;;;-145.06;0.00;60892.56;6092208;22;19907;-94
2023/09/03 22:40:51;;;;;;;;;;;;;;;-145.06;0.00;60892.56;6069993;22;19907;-93
2023/09/03 22:43:50;;;;;;;;;;;;;;;-145.06;0.00;60892.56;6070458;22;19911;-94
2023/09/03 22:46:36;;;;;;;;;;;;;;;-145.06;0.00;60892.56;6092478;22;19911;-92
2023/09/03 22:49:23;;;;;;;;;;;;;;;-145.06;0.00;60892.56;6070803;22;19911;-94
2023/09/03 22:52:05;;;;;;;;;;;;;;;-145.06;0.00;60892.56;6070858;22;20214;-93
2023/09/03 22:54:44;;;;;;;;;;;;;;;-145.06;0.00;60892.56;6070158;22;19907;-95
2023/09/03 22:57:26;;;;;;;;;;;;;;;-145.06;0.00;60892.56;6093698;22;19907;-93
2023/09/03 23:00:07;;;;;;;;;;;;;;;-145.06;0.00;60892.56;6103351;22;19946;-93
2023/09/03 23:02:48;;;;;;;;;;;;;;;-145.06;0.00;60892.56;6070424;22;19990;-92
2023/09/03 23:05:30;;;;;;;;;;;;;;;-145.06;0.00;60892.56;6070350;22;19915;-93
2023/09/03 23:08:09;;;;;;;;;;;;;;;-145.06;0.00;60892.56;6103122;22;19906;-94
2023/09/03 23:10:48;;;;;;;;;;;;;;;-145.06;0.00;60892.56;6070660;22;19907;-92
2023/09/03 23:13:27;;;;;;;;;;;;;;;-145.06;0.00;60892.56;6070226;22;19907;-94
2023/09/03 23:16:09;;;;;;;;;;;;;;;-145.06;0.00;60892.56;6070226;22;19907;-93
2023/09/03 23:18:50;;;;;;;;;;;;;;;-145.06;0.00;60892.56;6070790;22;19982;-94
2023/09/03 23:21:32;;;;;;;;;;;;;;;-145.06;0.00;60892.56;6070098;22;19907;-92
2023/09/03 23:24:13;;;;;;;;;;;;;;;-145.06;0.00;60892.56;6070041;22;19910;-92
2023/09/03 23:26:52;;;;;;;;;;;;;;;-145.06;0.00;60892.56;6069843;22;20214;-92
2023/09/03 23:29:33;;;;;;;;;;;;;;;-145.06;0.00;60892.56;6070221;22;19960;-94
2023/09/03 23:32:15;;;;;;;;;;;;;;;-145.06;0.00;60892.56;6070357;22;19906;-93
2023/09/03 23:34:55;;;;;;;;;;;;;;;-145.06;0.00;60892.56;6069736;22;19911;-95
2023/09/03 23:37:34;;;;;;;;;;;;;;;-145.06;0.00;60892.56;6069755;22;19907;-93
2023/09/03 23:40:12;;;;;;;;;;;;;;;-145.06;0.00;60892.56;6070114;22;19907;-93
2023/09/03 23:42:54;;;;;;;;;;;;;;;-145.06;0.00;60892.56;6070138;22;19907;-94
2023/09/03 23:45:33;;;;;;;;;;;;;;;-145.06;0.00;60892.56;6070474;22;19938;-93
2023/09/03 23:48:13;;;;;;;;;;;;;;;-145.06;0.00;60892.56;6070449;22;19907;-92
2023/09/03 23:50:53;;;;;;;;;;;;;;;-145.06;0.00;60892.56;6069451;22;19970;-92
2023/09/03 23:53:32;;;;;;;;;;;;;;;-145.06;0.00;60892.56;6070146;22;19907;-93
2023/09/03 23:56:11;;;;;;;;;;;;;;;-145.06;0.00;60892.56;6069733;22;19907;-93
2023/09/03 23:58:52;;;;;;;;;;;;;;;-145.06;0.00;60892.56;6069681;22;19990;-94
